createdAt,value
2023-01-09T19:13:54.651Z,28.33
2023-01-09T19:16:22.751Z,25.70
2023-01-09T19:18:50.701Z,22.30
2023-01-09T19:21:20.431Z,21.92
2023-01-09T19:23:49.277Z,20.85
2023-01-09T19:26:23.745Z,20.42
2023-01-09T19:28:55.169Z,19.50
2023-01-09T19:31:24.697Z,19.65
2023-01-09T19:33:53.068Z,20.75
2023-01-09T19:36:21.506Z,20.77
2023-01-09T19:38:49.639Z,18.15
2023-01-09T19:41:21.235Z,17.90
2023-01-09T19:43:49.235Z,18.33
2023-01-09T19:46:18.757Z,17.17
2023-01-09T19:48:47.029Z,16.73
2023-01-09T19:51:16.072Z,16.23
2023-01-09T19:53:44.070Z,16.40
2023-01-09T19:56:12.049Z,17.08
2023-01-09T19:58:40.675Z,16.50
2023-01-09T20:01:09.942Z,15.05
2023-01-09T20:03:38.001Z,16.08
2023-01-09T20:06:07.204Z,16.60
2023-01-09T20:08:35.216Z,16.60
2023-01-09T20:11:05.493Z,22.40
2023-01-09T20:13:34.110Z,21.25
2023-01-09T20:16:02.393Z,18.63
2023-01-09T20:18:31.538Z,15.27
2023-01-09T20:20:59.828Z,15.55
2023-01-09T20:23:28.035Z,14.30
2023-01-09T20:25:58.450Z,14.25
2023-01-09T20:28:28.216Z,15.88
2023-01-09T20:30:56.079Z,15.32
2023-01-09T20:33:24.432Z,13.57
2023-01-09T20:35:52.522Z,13.90
2023-01-09T20:38:20.433Z,12.80
2023-01-09T20:40:48.680Z,19.73
2023-01-09T20:43:17.550Z,16.55
2023-01-09T20:45:45.598Z,13.02
2023-01-09T20:48:14.600Z,12.00
2023-01-09T20:50:42.820Z,12.15
2023-01-09T20:53:10.606Z,11.27
2023-01-09T20:55:38.553Z,12.82
2023-01-09T20:58:06.394Z,12.75
2023-01-09T21:00:34.334Z,12.13
2023-01-09T21:03:02.434Z,13.38
2023-01-09T21:05:30.430Z,11.70
2023-01-09T21:07:58.365Z,12.18
2023-01-09T21:10:27.665Z,11.57
2023-01-09T21:12:55.439Z,11.80
2023-01-09T21:15:24.647Z,12.50
2023-01-09T21:17:52.622Z,12.45
2023-01-09T21:20:20.547Z,13.15
2023-01-09T21:22:49.327Z,13.23
2023-01-09T21:25:17.251Z,11.88
2023-01-09T21:27:50.375Z,14.73
2023-01-09T21:32:45.967Z,15.05
2023-01-09T21:35:13.810Z,14.93
2023-01-09T21:37:41.903Z,15.07
2023-01-09T21:40:19.385Z,15.32
2023-01-09T21:43:05.796Z,14.93
2023-01-09T21:45:52.324Z,14.10
2023-01-09T21:48:20.216Z,15.35
2023-01-09T21:50:48.126Z,16.63
2023-01-09T21:53:15.965Z,17.20
2023-01-09T21:55:43.973Z,15.40
2023-01-09T21:58:11.804Z,15.00
2023-01-09T22:00:41.190Z,13.55
2023-01-09T22:03:09.392Z,13.25
2023-01-09T22:05:37.789Z,13.55
2023-01-09T22:08:05.764Z,12.88
2023-01-09T22:10:33.644Z,13.52
2023-01-09T22:13:13.477Z,12.75
2023-01-09T22:15:41.585Z,12.00
2023-01-09T22:18:09.553Z,11.40
2023-01-09T22:20:37.425Z,12.05
2023-01-09T22:23:05.320Z,12.10
2023-01-09T22:25:33.167Z,12.65
2023-01-09T22:28:01.079Z,13.77
2023-01-09T22:30:28.886Z,14.35
2023-01-09T22:32:56.865Z,15.68
2023-01-09T22:35:24.658Z,14.00
2023-01-09T22:37:52.660Z,14.50
2023-01-09T22:40:20.515Z,13.07
2023-01-09T22:42:48.366Z,13.82
2023-01-09T22:45:16.541Z,15.32
2023-01-09T22:47:44.412Z,14.85
2023-01-09T22:50:12.415Z,15.50
2023-01-09T22:52:40.441Z,13.70
2023-01-09T22:55:08.892Z,12.05
2023-01-09T22:57:36.634Z,14.32
2023-01-09T23:00:05.130Z,13.05
2023-01-09T23:02:33.078Z,12.10
2023-01-09T23:05:01.019Z,12.02
2023-01-09T23:07:28.793Z,13.60
2023-01-09T23:10:00.386Z,13.57
2023-01-09T23:12:28.563Z,14.30
2023-01-09T23:14:56.489Z,13.57
2023-01-09T23:17:24.471Z,13.25
2023-01-09T23:19:52.265Z,14.00
2023-01-09T23:22:20.365Z,15.35
2023-01-09T23:24:48.290Z,14.70
2023-01-09T23:27:16.219Z,14.93
2023-01-09T23:29:44.049Z,15.45
2023-01-09T23:32:14.097Z,14.23
2023-01-09T23:34:42.510Z,15.77
2023-01-09T23:37:10.369Z,15.60
2023-01-09T23:39:38.342Z,14.45
2023-01-09T23:42:25.053Z,13.48
2023-01-09T23:44:52.933Z,14.07
2023-01-09T23:47:21.052Z,14.02
2023-01-09T23:49:49.054Z,14.23
2023-01-09T23:52:16.818Z,13.93
2023-01-09T23:54:44.646Z,14.80
2023-01-09T23:57:12.577Z,15.30
2023-01-09T23:59:40.393Z,16.52
